Time;durP1;ratioP1;P1;durP2;ratioP2;P2;SDS_P1;SDS_P2;PMS_P1;PMS_P2;Temp;Humidity;BMP_temperature;BMP_pressure;BME280_temperature;BME280_humidity;BME280_pressure;Samples;Min_cycle;Max_cycle;Signal;HPM_P1;HPM_P2
2022/07/26 00:02:01;;;;;;;;;;;;;;;17.71;100.00;99458.47;4992680;28;929;-64
2022/07/26 00:04:27;;;;;;;;;;;;;;;17.66;100.00;99459.81;4992626;28;1944;-64
2022/07/26 00:06:54;;;;;;;;;;;;;;;17.63;100.00;99454.38;4992425;28;898;-64
2022/07/26 00:09:21;;;;;;;;;;;;;;;17.58;100.00;99457.75;4992454;28;799;-64
2022/07/26 00:11:48;;;;;;;;;;;;;;;17.60;100.00;99458.84;4992392;28;811;-64
2022/07/26 00:14:15;;;;;;;;;;;;;;;17.57;100.00;99459.78;4992312;28;914;-64
2022/07/26 00:16:42;;;;;;;;;;;;;;;17.50;100.00;99454.50;4992484;28;886;-64
2022/07/26 00:19:09;;;;;;;;;;;;;;;17.47;100.00;99449.81;4992119;28;850;-64
2022/07/26 00:21:36;;;;;;;;;;;;;;;17.45;100.00;99450.25;4992182;28;886;-64
2022/07/26 00:24:05;;;;;;;;;;;;;;;17.48;100.00;99454.94;4992148;28;1937;-64
2022/07/26 00:26:32;;;;;;;;;;;;;;;17.53;100.00;99451.53;4974639;28;1210;-64
2022/07/26 00:29:02;;;;;;;;;;;;;;;17.61;100.00;99451.28;4992154;28;863;-64
2022/07/26 00:31:29;;;;;;;;;;;;;;;17.67;100.00;99450.22;4992138;28;866;-64
2022/07/26 00:33:56;;;;;;;;;;;;;;;17.67;100.00;99433.44;4992081;28;1319;-64
2022/07/26 00:36:23;;;;;;;;;;;;;;;17.73;100.00;99441.97;4992475;28;1027;-64
2022/07/26 00:38:50;;;;;;;;;;;;;;;17.75;100.00;99431.13;4992869;28;779;-64
2022/07/26 00:41:16;;;;;;;;;;;;;;;17.78;100.00;99432.25;4993273;28;792;-64
2022/07/26 00:43:56;;;;;;;;;;;;;;;17.78;100.00;99421.06;4996218;28;1910;-64
2022/07/26 00:46:23;;;;;;;;;;;;;;;17.75;100.00;99431.94;4996039;28;858;-64
2022/07/26 00:48:50;;;;;;;;;;;;;;;17.74;100.00;99426.78;4995812;28;849;-64
2022/07/26 00:51:17;;;;;;;;;;;;;;;17.70;100.00;99420.56;4993358;28;1357;-64
2022/07/26 00:53:44;;;;;;;;;;;;;;;17.70;100.00;99428.94;4995804;28;882;-64
2022/07/26 00:56:13;;;;;;;;;;;;;;;17.69;100.00;99416.22;4995797;28;891;-64
2022/07/26 00:58:40;;;;;;;;;;;;;;;17.73;100.00;99414.84;4978312;28;1289;-64
2022/07/26 01:01:07;;;;;;;;;;;;;;;17.71;100.00;99414.50;4995740;28;816;-64
2022/07/26 01:03:34;;;;;;;;;;;;;;;17.63;100.00;99412.47;4978096;28;1886;-64
2022/07/26 01:06:01;;;;;;;;;;;;;;;17.63;100.00;99410.44;4995633;28;815;-64
2022/07/26 01:08:27;;;;;;;;;;;;;;;17.50;100.00;99410.56;4995601;28;824;-64
2022/07/26 01:10:54;;;;;;;;;;;;;;;17.40;100.00;99411.75;4995553;28;820;-64
2022/07/26 01:13:22;;;;;;;;;;;;;;;17.27;100.00;99405.50;4995501;28;847;-64
2022/07/26 01:15:48;;;;;;;;;;;;;;;17.22;100.00;99411.66;4995516;28;796;-64
2022/07/26 01:18:15;;;;;;;;;;;;;;;17.22;100.00;99406.06;4995344;28;936;-64
2022/07/26 01:20:41;;;;;;;;;;;;;;;17.16;100.00;99403.09;4995434;28;819;-64
2022/07/26 01:23:08;;;;;;;;;;;;;;;17.23;100.00;99400.03;4995187;28;1878;-64
2022/07/26 01:25:36;;;;;;;;;;;;;;;17.32;100.00;99393.72;4995299;28;803;-64
2022/07/26 01:28:03;;;;;;;;;;;;;;;17.40;100.00;99391.44;4995248;28;871;-64
2022/07/26 01:30:29;;;;;;;;;;;;;;;17.39;100.00;99392.66;4995309;28;870;-64
2022/07/26 01:32:56;;;;;;;;;;;;;;;17.24;100.00;99396.03;4995316;28;1007;-64
2022/07/26 01:35:22;;;;;;;;;;;;;;;17.14;100.00;99383.25;4994940;28;1453;-64
2022/07/26 01:37:49;;;;;;;;;;;;;;;17.12;100.00;99391.28;4977640;28;1248;-64
2022/07/26 01:40:15;;;;;;;;;;;;;;;17.06;100.00;99393.88;4993336;28;1341;-64
2022/07/26 01:42:42;;;;;;;;;;;;;;;17.01;100.00;99385.34;4995052;28;878;-64
2022/07/26 01:45:09;;;;;;;;;;;;;;;16.99;100.00;99387.81;4977349;28;1910;-65
2022/07/26 01:47:37;;;;;;;;;;;;;;;16.97;100.00;99388.25;4994872;28;795;-64
2022/07/26 01:50:04;;;;;;;;;;;;;;;16.91;100.00;99385.28;4977309;28;1164;-64
2022/07/26 01:52:32;;;;;;;;;;;;;;;16.88;100.00;99388.22;4994716;28;918;-64
2022/07/26 01:54:59;;;;;;;;;;;;;;;16.93;100.00;99385.59;4994734;28;835;-64
2022/07/26 01:57:25;;;;;;;;;;;;;;;16.98;100.00;99391.81;4994732;28;858;-64
2022/07/26 01:59:52;;;;;;;;;;;;;;;16.97;100.00;99384.69;4994624;28;807;-64
2022/07/26 02:02:18;;;;;;;;;;;;;;;16.94;100.00;99378.78;4994675;28;810;-64
2022/07/26 02:05:00;;;;;;;;;;;;;;;16.91;100.00;99382.47;4994587;28;1895;-64
2022/07/26 02:07:28;;;;;;;;;;;;;;;16.90;100.00;99380.16;4994584;28;898;-64
2022/07/26 02:09:55;;;;;;;;;;;;;;;16.91;100.00;99381.72;4977016;28;1400;-64
2022/07/26 02:12:22;;;;;;;;;;;;;;;16.90;100.00;99388.53;4994529;28;831;-64
2022/07/26 02:14:49;;;;;;;;;;;;;;;16.95;100.00;99387.94;4994395;28;799;-64
2022/07/26 02:17:15;;;;;;;;;;;;;;;17.01;100.00;99390.94;4994266;28;835;-63
2022/07/26 02:19:42;;;;;;;;;;;;;;;17.05;100.00;99380.41;4994327;28;875;-64
2022/07/26 02:22:09;;;;;;;;;;;;;;;17.09;100.00;99389.41;4976761;28;1348;-64
2022/07/26 02:24:36;;;;;;;;;;;;;;;17.12;100.00;99382.91;4994254;28;1890;-64
2022/07/26 02:27:03;;;;;;;;;;;;;;;17.13;100.00;99382.47;4994141;28;784;-64
2022/07/26 02:29:30;;;;;;;;;;;;;;;17.13;100.00;99374.09;4976642;28;1289;-64
2022/07/26 02:31:57;;;;;;;;;;;;;;;17.16;100.00;99377.97;4994051;28;923;-64
2022/07/26 02:34:24;;;;;;;;;;;;;;;17.18;100.00;99375.50;4994100;28;1472;-64
2022/07/26 02:36:50;;;;;;;;;;;;;;;17.18;100.00;99375.50;4976566;28;1221;-64
2022/07/26 02:39:18;;;;;;;;;;;;;;;17.18;100.00;99377.53;4993887;28;858;-64
2022/07/26 02:41:44;;;;;;;;;;;;;;;17.14;100.00;99380.44;4993979;28;819;-64
2022/07/26 02:44:11;;;;;;;;;;;;;;;17.11;100.00;99376.56;4993719;28;1923;-64
2022/07/26 02:46:38;;;;;;;;;;;;;;;17.13;100.00;99384.47;4993785;28;902;-64
2022/07/26 02:49:04;;;;;;;;;;;;;;;17.14;100.00;99383.25;4993811;28;796;-64
2022/07/26 02:51:31;;;;;;;;;;;;;;;17.14;100.00;99386.03;4993825;28;1001;-63
2022/07/26 02:53:57;;;;;;;;;;;;;;;17.14;100.00;99386.81;4993940;28;800;-64
2022/07/26 02:56:24;;;;;;;;;;;;;;;17.13;100.00;99382.47;4993833;28;823;-63
2022/07/26 02:58:50;;;;;;;;;;;;;;;17.16;100.00;99388.38;4993862;28;874;-63
2022/07/26 03:01:17;;;;;;;;;;;;;;;17.20;100.00;99400.16;4994183;28;847;-63
2022/07/26 03:03:44;;;;;;;;;;;;;;;17.20;100.00;99389.78;4993129;28;1902;-64
2022/07/26 03:06:10;;;;;;;;;;;;;;;17.27;100.00;99388.72;4993604;28;808;-64
2022/07/26 03:08:37;;;;;;;;;;;;;;;17.32;100.00;99388.88;4993674;28;859;-64
2022/07/26 03:11:04;;;;;;;;;;;;;;;17.36;100.00;99391.56;4993257;28;871;-63
2022/07/26 03:13:30;;;;;;;;;;;;;;;17.43;100.00;99396.88;4993316;28;862;-63
2022/07/26 03:15:57;;;;;;;;;;;;;;;17.49;100.00;99399.84;4993156;28;820;-63
2022/07/26 03:18:24;;;;;;;;;;;;;;;17.51;100.00;99394.56;4993198;28;824;-64
2022/07/26 03:20:51;;;;;;;;;;;;;;;17.52;100.00;99396.13;4993345;28;850;-64
2022/07/26 03:23:17;;;;;;;;;;;;;;;17.55;100.00;99400.78;4993061;28;1886;-64
2022/07/26 03:25:44;;;;;;;;;;;;;;;17.60;100.00;99394.59;4975671;28;803;-64
2022/07/26 03:28:11;;;;;;;;;;;;;;;17.63;100.00;99393.69;4975626;28;847;-63
2022/07/26 03:30:37;;;;;;;;;;;;;;;17.63;100.00;99393.69;4992985;28;830;-64
2022/07/26 03:33:04;;;;;;;;;;;;;;;17.62;100.00;99400.50;4993261;28;1009;-64
2022/07/26 03:35:31;;;;;;;;;;;;;;;17.59;100.00;99401.44;4975247;28;1273;-63
2022/07/26 03:37:57;;;;;;;;;;;;;;;17.60;100.00;99402.19;4992866;28;843;-63
2022/07/26 03:40:24;;;;;;;;;;;;;;;17.63;100.00;99396.47;4992854;28;878;-64
2022/07/26 03:42:51;;;;;;;;;;;;;;;17.71;100.00;99403.34;4992828;28;818;-63
2022/07/26 03:45:18;;;;;;;;;;;;;;;17.78;100.00;99405.06;4992563;28;1911;-63
2022/07/26 03:47:45;;;;;;;;;;;;;;;17.86;100.00;99406.34;4992706;28;866;-63
2022/07/26 03:50:12;;;;;;;;;;;;;;;17.92;100.00;99403.72;4992693;28;807;-64
2022/07/26 03:52:39;;;;;;;;;;;;;;;17.97;100.00;99405.91;4992598;28;870;-63
2022/07/26 03:57:51;;;;;;;;;;;;;;;18.08;100.00;99403.44;4992592;28;676;-63
2022/07/26 04:00:17;;;;;;;;;;;;;;;18.10;100.00;99403.75;4992503;28;835;-63
2022/07/26 04:02:44;;;;;;;;;;;;;;;18.12;100.00;99406.88;4992511;28;862;-64
2022/07/26 04:05:11;;;;;;;;;;;;;;;18.15;100.00;99405.94;4992670;28;1902;-63
2022/07/26 04:07:44;;;;;;;;;;;;;;;18.24;100.00;99404.38;4992408;28;850;-64
2022/07/26 04:10:12;;;;;;;;;;;;;;;18.36;100.00;99401.44;4992371;28;927;-63
2022/07/26 04:12:38;;;;;;;;;;;;;;;18.51;100.00;99406.44;4992364;28;838;-63
2022/07/26 04:15:05;;;;;;;;;;;;;;;18.66;100.00;99406.56;4992033;28;874;-64
2022/07/26 04:17:36;;;;;;;;;;;;;;;18.80;100.00;99407.97;4992307;28;851;-64
2022/07/26 04:20:02;;;;;;;;;;;;;;;18.91;100.00;99406.25;4992772;28;772;-63
2022/07/26 04:22:30;;;;;;;;;;;;;;;19.00;100.00;99404.69;4992669;28;806;-63
2022/07/26 04:24:57;;;;;;;;;;;;;;;19.10;100.00;99398.59;4992408;28;1894;-63
2022/07/26 04:27:24;;;;;;;;;;;;;;;19.17;99.84;99403.84;4992560;28;870;-63
2022/07/26 04:29:50;;;;;;;;;;;;;;;19.25;99.40;99404.31;4992338;28;780;-64
2022/07/26 04:32:17;;;;;;;;;;;;;;;19.33;98.74;99402.72;4992430;28;1013;-64
2022/07/26 04:34:43;;;;;;;;;;;;;;;19.49;98.09;99401.56;4992205;28;1220;-63
2022/07/26 04:37:10;;;;;;;;;;;;;;;19.63;97.03;99408.53;4991978;28;891;-63
2022/07/26 04:39:37;;;;;;;;;;;;;;;19.81;96.13;99412.50;4992075;28;831;-63
2022/07/26 04:42:03;;;;;;;;;;;;;;;19.97;95.23;99415.69;4992008;28;819;-63
2022/07/26 04:44:30;;;;;;;;;;;;;;;20.11;94.32;99414.19;4974350;28;1918;-62
2022/07/26 04:46:56;;;;;;;;;;;;;;;20.18;93.87;99407.44;4992252;28;812;-63
2022/07/26 04:49:23;;;;;;;;;;;;;;;20.28;93.53;99408.16;4974572;28;1309;-63
2022/07/26 04:51:49;;;;;;;;;;;;;;;20.47;93.01;99417.97;4991910;28;867;-63
2022/07/26 04:54:21;;;;;;;;;;;;;;;20.72;92.42;99413.13;4991935;28;803;-63
2022/07/26 04:56:51;;;;;;;;;;;;;;;20.98;91.35;99408.50;4992191;28;874;-63
2022/07/26 04:59:18;;;;;;;;;;;;;;;21.18;90.17;99412.66;4992176;28;827;-63
2022/07/26 05:01:44;;;;;;;;;;;;;;;21.33;89.32;99404.22;4991892;28;820;-64
2022/07/26 05:04:11;;;;;;;;;;;;;;;21.46;88.98;99406.75;4991733;28;1886;-63
2022/07/26 05:06:38;;;;;;;;;;;;;;;21.59;88.28;99407.19;4991855;28;804;-63
2022/07/26 05:09:04;;;;;;;;;;;;;;;21.82;87.42;99399.88;4991807;28;886;-63
2022/07/26 05:11:31;;;;;;;;;;;;;;;22.01;86.46;99401.16;4991983;28;807;-63
2022/07/26 05:13:58;;;;;;;;;;;;;;;22.20;85.99;99406.50;4991808;28;827;-63
2022/07/26 05:16:24;;;;;;;;;;;;;;;22.36;85.36;99400.34;4991961;28;803;-63
2022/07/26 05:18:51;;;;;;;;;;;;;;;22.52;84.31;99407.44;4991948;28;835;-63
2022/07/26 05:21:18;;;;;;;;;;;;;;;22.73;83.19;99402.53;4992020;28;914;-63
2022/07/26 05:23:45;;;;;;;;;;;;;;;22.94;82.17;99405.31;4991902;28;1947;-62
2022/07/26 05:26:12;;;;;;;;;;;;;;;23.13;80.93;99400.91;4992245;28;862;-62
2022/07/26 05:28:38;;;;;;;;;;;;;;;23.40;79.27;99396.75;4994574;28;914;-62
2022/07/26 05:31:05;;;;;;;;;;;;;;;23.60;77.45;99395.88;4977853;28;1380;-62
2022/07/26 05:33:32;;;;;;;;;;;;;;;23.82;75.94;99397.31;4995675;28;918;-63
2022/07/26 05:35:58;;;;;;;;;;;;;;;23.86;74.29;99400.69;4995005;28;1497;-63
2022/07/26 05:38:26;;;;;;;;;;;;;;;23.97;73.49;99400.72;4995115;28;851;-62
2022/07/26 05:40:53;;;;;;;;;;;;;;;24.51;72.06;99394.31;4995083;28;792;-62
2022/07/26 05:43:19;;;;;;;;;;;;;;;24.98;69.31;99383.34;4995394;28;1914;-62
2022/07/26 05:45:46;;;;;;;;;;;;;;;25.01;69.46;99399.28;4977495;28;1221;-62
2022/07/26 05:48:12;;;;;;;;;;;;;;;25.13;68.18;99396.47;4995073;28;807;-62
2022/07/26 05:50:39;;;;;;;;;;;;;;;25.30;68.37;99402.91;4994844;28;870;-63
2022/07/26 05:53:06;;;;;;;;;;;;;;;25.73;66.26;99385.63;4994811;28;882;-62
2022/07/26 05:55:33;;;;;;;;;;;;;;;26.30;64.92;99391.91;4994811;28;851;-62
2022/07/26 05:57:59;;;;;;;;;;;;;;;27.43;60.31;99397.63;4994759;28;890;-62
2022/07/26 06:00:26;;;;;;;;;;;;;;;28.55;55.95;99396.94;4994717;28;819;-62
2022/07/26 06:02:53;;;;;;;;;;;;;;;29.62;52.64;99387.50;4994632;28;807;-62
2022/07/26 06:05:19;;;;;;;;;;;;;;;30.41;50.29;99393.78;4994579;28;1910;-62
2022/07/26 06:07:46;;;;;;;;;;;;;;;31.06;48.25;99392.03;4994549;28;890;-63
2022/07/26 06:10:13;;;;;;;;;;;;;;;31.64;46.35;99395.00;4994752;28;800;-62
2022/07/26 06:12:40;;;;;;;;;;;;;;;32.03;45.00;99398.91;4994397;28;831;-63
2022/07/26 06:15:06;;;;;;;;;;;;;;;31.94;44.86;99394.44;4994361;28;933;-62
2022/07/26 06:17:33;;;;;;;;;;;;;;;32.50;43.83;99400.69;4994429;28;863;-63
2022/07/26 06:20:00;;;;;;;;;;;;;;;33.01;42.26;99391.28;4994292;28;843;-63
2022/07/26 06:22:26;;;;;;;;;;;;;;;33.76;41.19;99383.31;4994362;28;851;-62
2022/07/26 06:24:53;;;;;;;;;;;;;;;34.30;39.66;99380.31;4994166;28;1918;-63
2022/07/26 06:27:20;;;;;;;;;;;;;;;34.59;38.24;99371.41;4994197;28;835;-63
2022/07/26 06:29:47;;;;;;;;;;;;;;;34.63;37.36;99368.09;4994122;28;867;-62
2022/07/26 06:32:14;;;;;;;;;;;;;;;34.54;36.19;99369.50;4994198;28;917;-62
2022/07/26 06:34:41;;;;;;;;;;;;;;;34.34;37.05;99372.06;4993770;28;1365;-62
2022/07/26 06:37:08;;;;;;;;;;;;;;;34.76;36.79;99362.91;4976548;28;1349;-63
2022/07/26 06:39:35;;;;;;;;;;;;;;;35.29;35.69;99375.38;4992766;28;860;-63
2022/07/26 06:42:01;;;;;;;;;;;;;;;35.73;34.68;99374.03;4993842;28;831;-62
2022/07/26 06:44:28;;;;;;;;;;;;;;;35.59;32.96;99373.56;4994041;28;2357;-63
2022/07/26 06:46:54;;;;;;;;;;;;;;;35.51;33.43;99375.75;4976340;28;1202;-62
2022/07/26 06:49:21;;;;;;;;;;;;;;;35.59;33.05;99370.69;4993809;28;819;-62
2022/07/26 06:51:48;;;;;;;;;;;;;;;35.50;32.96;99371.34;4993718;28;835;-62
2022/07/26 06:54:15;;;;;;;;;;;;;;;35.71;33.75;99377.50;4993692;28;883;-62
2022/07/26 06:56:42;;;;;;;;;;;;;;;36.06;33.17;99371.75;4993715;28;800;-62
2022/07/26 06:59:09;;;;;;;;;;;;;;;35.97;32.89;99375.31;4993560;28;958;-62
2022/07/26 07:01:36;;;;;;;;;;;;;;;35.85;32.07;99377.94;4993623;28;808;-62
2022/07/26 07:04:02;;;;;;;;;;;;;;;36.24;32.53;99369.66;4976057;28;1882;-62
2022/07/26 07:06:29;;;;;;;;;;;;;;;36.43;31.37;99379.78;4993438;28;870;-62
2022/07/26 07:08:56;;;;;;;;;;;;;;;36.53;31.41;99372.72;4993412;28;842;-62
2022/07/26 07:11:22;;;;;;;;;;;;;;;36.63;31.27;99374.94;4993330;28;851;-63
2022/07/26 07:13:49;;;;;;;;;;;;;;;36.60;31.13;99371.09;4993311;28;885;-62
2022/07/26 07:19:17;;;;;;;;;;;;;;;36.37;31.56;99359.91;4993360;28;633;-63
2022/07/26 07:21:44;;;;;;;;;;;;;;;37.17;30.73;99363.38;4993220;28;851;-63
2022/07/26 07:24:11;;;;;;;;;;;;;;;37.11;30.51;99363.66;4975604;28;1886;-63
2022/07/26 07:26:38;;;;;;;;;;;;;;;37.16;30.76;99365.50;4993073;28;827;-63
2022/07/26 07:29:04;;;;;;;;;;;;;;;37.50;29.78;99366.66;4993024;28;866;-63
2022/07/26 07:31:31;;;;;;;;;;;;;;;37.62;29.63;99366.09;4975633;28;1467;-63
2022/07/26 07:33:58;;;;;;;;;;;;;;;37.69;29.07;99368.84;4993239;28;1148;-63
2022/07/26 07:36:24;;;;;;;;;;;;;;;37.89;28.96;99355.19;4993380;28;863;-63
2022/07/26 07:38:51;;;;;;;;;;;;;;;37.53;28.92;99365.44;4993077;28;823;-63
2022/07/26 07:41:17;;;;;;;;;;;;;;;37.77;29.40;99355.06;4993274;28;820;-64
2022/07/26 07:43:44;;;;;;;;;;;;;;;38.07;28.92;99355.84;4993434;28;1973;-64
2022/07/26 07:46:11;;;;;;;;;;;;;;;38.20;28.84;99358.25;4992695;28;1321;-63
2022/07/26 07:48:39;;;;;;;;;;;;;;;38.13;28.21;99358.41;4992859;28;803;-63
2022/07/26 07:51:06;;;;;;;;;;;;;;;38.44;28.10;99352.00;4992514;28;847;-64
2022/07/26 07:53:33;;;;;;;;;;;;;;;38.11;28.33;99356.16;4992925;28;906;-63
2022/07/26 07:56:00;;;;;;;;;;;;;;;37.49;28.10;99353.63;4992853;28;815;-65
2022/07/26 07:58:27;;;;;;;;;;;;;;;37.20;29.37;99359.31;4992868;28;842;-63
2022/07/26 08:00:54;;;;;;;;;;;;;;;37.96;27.78;99348.53;4992810;28;819;-63
2022/07/26 08:03:21;;;;;;;;;;;;;;;38.30;27.23;99354.59;4975257;28;1939;-63
2022/07/26 08:05:48;;;;;;;;;;;;;;;38.15;27.65;99349.91;4992698;28;857;-63
2022/07/26 08:08:15;;;;;;;;;;;;;;;38.04;28.16;99356.28;4992927;28;819;-63
2022/07/26 08:10:42;;;;;;;;;;;;;;;38.27;27.21;99350.06;4992488;28;862;-64
2022/07/26 08:13:09;;;;;;;;;;;;;;;38.17;27.51;99350.81;4975163;28;1162;-63
2022/07/26 08:15:35;;;;;;;;;;;;;;;38.47;26.61;99339.22;4992990;28;788;-63
2022/07/26 08:18:02;;;;;;;;;;;;;;;38.94;26.74;99339.69;4992323;28;831;-63
2022/07/26 08:20:30;;;;;;;;;;;;;;;39.48;26.74;99339.16;4992372;28;815;-63
2022/07/26 08:22:57;;;;;;;;;;;;;;;39.67;25.67;99346.16;4992475;28;879;-64
2022/07/26 08:25:24;;;;;;;;;;;;;;;39.15;25.39;99342.66;4992421;28;1949;-63
2022/07/26 08:27:50;;;;;;;;;;;;;;;39.12;25.72;99334.47;4992564;28;835;-63
2022/07/26 08:30:17;;;;;;;;;;;;;;;39.15;25.33;99339.00;4993041;28;764;-63
2022/07/26 08:32:43;;;;;;;;;;;;;;;39.20;24.63;99338.69;4992299;28;935;-63
2022/07/26 08:35:11;;;;;;;;;;;;;;;39.02;25.18;99331.63;4991888;28;1356;-63
2022/07/26 08:37:37;;;;;;;;;;;;;;;38.64;25.16;99326.75;4992712;28;843;-63
2022/07/26 08:40:04;;;;;;;;;;;;;;;38.20;25.94;99322.88;4992043;28;792;-63
2022/07/26 08:42:30;;;;;;;;;;;;;;;38.08;26.70;99328.50;4992093;28;792;-64
2022/07/26 08:44:56;;;;;;;;;;;;;;;37.64;27.11;99332.44;4974483;28;1910;-63
2022/07/26 08:47:23;;;;;;;;;;;;;;;37.79;27.71;99325.63;4974532;28;1436;-63
2022/07/26 08:49:50;;;;;;;;;;;;;;;38.39;26.61;99325.72;4991959;28;823;-64
2022/07/26 08:52:16;;;;;;;;;;;;;;;38.86;25.97;99328.34;4991964;28;859;-64
2022/07/26 08:54:51;;;;;;;;;;;;;;;38.98;25.98;99314.75;4991927;28;847;-63
2022/07/26 08:57:17;;;;;;;;;;;;;;;39.07;25.94;99321.88;4991959;28;847;-63
2022/07/26 08:59:44;;;;;;;;;;;;;;;39.06;25.52;99310.94;4974571;28;1345;-63
2022/07/26 09:02:11;;;;;;;;;;;;;;;39.35;26.06;99322.34;4992465;28;847;-63
2022/07/26 09:04:39;;;;;;;;;;;;;;;38.82;25.53;99309.97;4995661;28;1891;-63
2022/07/26 09:19:20;;;;;;;;;;;;;;;36.01;30.77;99311.63;4996043;28;669;-62
2022/07/26 09:21:46;;;;;;;;;;;;;;;37.28;28.38;99305.19;4995440;28;891;-63
2022/07/26 09:24:28;;;;;;;;;;;;;;;37.83;27.77;99302.81;4995472;28;1950;-63
2022/07/26 09:26:55;;;;;;;;;;;;;;;38.19;27.16;99299.03;4995371;28;776;-63
2022/07/26 09:29:22;;;;;;;;;;;;;;;38.16;26.55;99296.63;4977795;28;1206;-63
2022/07/26 09:31:49;;;;;;;;;;;;;;;38.18;27.24;99297.53;4995260;28;795;-62
2022/07/26 09:34:23;;;;;;;;;;;;;;;37.95;26.08;99295.09;4995340;28;1289;-63
2022/07/26 09:49:20;;;;;;;;;;;;;;;32.18;35.05;99289.59;4995254;28;680;-63
2022/07/26 09:51:49;;;;;;;;;;;;;;;32.02;34.98;99286.69;4994440;28;1161;-64
2022/07/26 09:54:34;;;;;;;;;;;;;;;32.27;36.04;99284.13;4995110;28;890;-63
2022/07/26 09:57:01;;;;;;;;;;;;;;;33.42;34.82;99286.34;4995097;28;783;-63
2022/07/26 09:59:28;;;;;;;;;;;;;;;34.31;32.62;99281.47;4994807;28;800;-63
2022/07/26 10:01:56;;;;;;;;;;;;;;;34.75;32.86;99280.25;4994735;28;816;-63
2022/07/26 10:36:09;;;;;;;;;;;;;;;34.20;33.21;99243.88;4974865;28;641;-68
2022/07/26 10:38:37;;;;;;;;;;;;;;;35.36;31.50;99235.91;4973300;28;1315;-68
2022/07/26 10:41:06;;;;;;;;;;;;;;;35.99;30.38;99228.81;4974629;28;894;-69
2022/07/26 10:43:33;;;;;;;;;;;;;;;36.76;29.22;99234.22;4975205;28;1976;-70
2022/07/26 10:46:18;;;;;;;;;;;;;;;37.37;29.04;99225.91;4974578;28;1282;-70
2022/07/26 10:49:03;;;;;;;;;;;;;;;38.11;27.27;99229.22;4974549;28;866;-68
2022/07/26 10:51:36;;;;;;;;;;;;;;;38.57;26.61;99228.16;4974706;28;830;-70
2022/07/26 10:54:09;;;;;;;;;;;;;;;38.49;26.84;99218.13;4974371;28;1096;-69
2022/07/26 10:56:36;;;;;;;;;;;;;;;38.20;26.21;99221.91;4974286;28;945;-68
2022/07/26 10:59:03;;;;;;;;;;;;;;;38.11;26.18;99219.78;4974229;28;1269;-70
2022/07/26 11:01:34;;;;;;;;;;;;;;;38.53;25.93;99215.56;4972921;28;904;-71
2022/07/26 11:04:01;;;;;;;;;;;;;;;38.52;25.50;99211.19;4973879;28;1915;-69
2022/07/26 11:06:31;;;;;;;;;;;;;;;37.97;26.54;99213.72;4974171;28;914;-70
2022/07/26 11:08:57;;;;;;;;;;;;;;;37.85;26.40;99213.59;4974007;28;882;-70
2022/07/26 11:11:28;;;;;;;;;;;;;;;38.27;25.96;99205.78;4974026;28;875;-69
2022/07/26 11:14:02;;;;;;;;;;;;;;;38.64;26.04;99205.50;4973896;28;820;-70
2022/07/26 11:16:35;;;;;;;;;;;;;;;38.88;25.03;99194.84;4974080;28;835;-69
2022/07/26 11:19:10;;;;;;;;;;;;;;;38.84;24.95;99197.50;4973862;28;992;-69
2022/07/26 11:21:37;;;;;;;;;;;;;;;38.90;25.29;99187.09;4973820;28;863;-68
2022/07/26 11:24:04;;;;;;;;;;;;;;;39.09;25.32;99188.34;4973701;28;1961;-71
2022/07/26 11:26:39;;;;;;;;;;;;;;;39.27;24.49;99183.06;4973018;28;989;-69
2022/07/26 11:29:05;;;;;;;;;;;;;;;38.48;24.82;99182.75;4973823;28;882;-69
2022/07/26 11:31:37;;;;;;;;;;;;;;;38.05;25.67;99179.00;4973611;28;808;-71
2022/07/26 11:34:05;;;;;;;;;;;;;;;38.60;25.11;99179.97;4981739;28;1231;-71
2022/07/26 11:36:33;;;;;;;;;;;;;;;39.36;24.20;99168.50;4992933;28;854;-70
2022/07/26 11:39:01;;;;;;;;;;;;;;;40.01;23.24;99169.16;4975570;28;1477;-70
2022/07/26 11:44:33;;;;;;;;;;;;;;;41.16;22.09;99172.50;4992808;28;1918;-71
2022/07/26 11:47:09;;;;;;;;;;;;;;;41.21;21.86;99165.56;4992909;28;863;-71
2022/07/26 11:49:35;;;;;;;;;;;;;;;41.54;21.25;99159.50;4992699;28;784;-71
2022/07/26 11:52:02;;;;;;;;;;;;;;;41.87;20.50;99149.75;4992715;28;913;-72
2022/07/26 11:54:30;;;;;;;;;;;;;;;42.10;20.32;99154.66;4992696;28;808;-72
2022/07/26 11:57:02;;;;;;;;;;;;;;;42.47;19.65;99139.22;4992590;28;886;-70
2022/07/26 11:59:30;;;;;;;;;;;;;;;42.90;19.50;99150.19;4992866;28;815;-70
2022/07/26 12:01:57;;;;;;;;;;;;;;;42.80;19.26;99147.47;4992763;28;834;-72
2022/07/26 12:04:24;;;;;;;;;;;;;;;42.48;19.27;99148.69;4992459;28;1946;-71
2022/07/26 12:06:52;;;;;;;;;;;;;;;42.06;19.73;99142.84;4992883;28;827;-70
2022/07/26 12:09:48;;;;;;;;;;;;;;;42.46;19.71;99134.06;4993271;28;761;-70
2022/07/26 12:12:22;;;;;;;;;;;;;;;42.23;20.07;99139.41;4979637;28;1289;-69
2022/07/26 12:15:01;;;;;;;;;;;;;;;41.30;20.79;99140.72;4992383;28;831;-70
2022/07/26 12:17:28;;;;;;;;;;;;;;;40.42;22.06;99139.13;4992404;28;858;-69
2022/07/26 12:20:09;;;;;;;;;;;;;;;39.77;21.81;99142.28;4992245;28;819;-71
2022/07/26 12:22:35;;;;;;;;;;;;;;;40.26;22.56;99141.72;4992619;28;866;-72
2022/07/26 12:25:02;;;;;;;;;;;;;;;40.81;23.16;99132.78;4992195;28;1976;-72
2022/07/26 12:40:07;;;;;;;;;;;;;;;39.45;25.00;99125.72;4995546;28;1403;-70
2022/07/26 12:42:41;;;;;;;;;;;;;;;39.56;24.98;99120.00;4996510;28;929;-70
2022/07/26 12:45:12;;;;;;;;;;;;;;;39.48;24.56;99122.34;4978667;28;1887;-71
2022/07/26 12:47:40;;;;;;;;;;;;;;;39.49;24.34;99118.06;4978548;28;1289;-70
2022/07/26 12:50:10;;;;;;;;;;;;;;;39.21;24.77;99117.69;4996122;28;882;-75
2022/07/26 13:02:06;;;;;;;;;;;;;;;40.16;24.27;99112.94;4996060;28;625;-69
2022/07/26 13:05:14;;;;;;;;;;;;;;;39.88;23.76;99111.91;4935755;29;1894;-72
2022/07/26 13:07:42;;;;;;;;;;;;;;;39.49;24.25;99123.09;4913514;29;1119;-71
2022/07/26 13:10:17;;;;;;;;;;;;;;;40.05;24.38;99116.56;4935665;29;1040;-70
2022/07/26 13:12:44;;;;;;;;;;;;;;;40.39;23.73;99117.97;4935786;29;812;-70
2022/07/26 13:15:10;;;;;;;;;;;;;;;40.54;23.21;99107.25;4935609;29;1192;-71
2022/07/26 13:17:40;;;;;;;;;;;;;;;40.01;23.57;99114.19;4935711;29;910;-72
2022/07/26 13:23:11;;;;;;;;;;;;;;;39.15;24.30;99113.66;4935656;29;996;-73
2022/07/26 13:25:38;;;;;;;;;;;;;;;38.97;24.41;99116.09;4935604;29;1985;-68
2022/07/26 13:28:04;;;;;;;;;;;;;;;38.60;24.47;99105.69;4935668;29;1147;-70
2022/07/26 13:30:31;;;;;;;;;;;;;;;38.65;24.71;99106.72;4935484;29;851;-71
2022/07/26 13:32:58;;;;;;;;;;;;;;;38.74;24.70;99108.03;4935722;29;980;-70
2022/07/26 13:35:24;;;;;;;;;;;;;;;39.07;24.45;99111.00;4919554;29;1219;-71
2022/07/26 13:37:54;;;;;;;;;;;;;;;38.80;24.94;99100.53;4935273;29;922;-70
2022/07/26 13:43:22;;;;;;;;;;;;;;;38.80;25.06;99100.53;4995149;28;602;-72
2022/07/26 13:46:02;;;;;;;;;;;;;;;38.72;24.79;99093.44;4995393;28;1973;-71
2022/07/26 13:48:29;;;;;;;;;;;;;;;38.88;24.96;99096.66;4977095;28;1314;-70
2022/07/26 13:50:56;;;;;;;;;;;;;;;39.23;24.80;99099.75;4994979;28;859;-71
2022/07/26 13:53:23;;;;;;;;;;;;;;;39.18;23.92;99098.72;4994912;28;782;-69
2022/07/26 14:08:09;;;;;;;;;;;;;;;38.22;25.79;99106.66;4995026;28;610;-70
2022/07/26 14:10:42;;;;;;;;;;;;;;;38.17;25.34;99099.84;4977151;28;1228;-74
2022/07/26 14:13:09;;;;;;;;;;;;;;;37.48;25.98;99098.47;4994593;28;783;-70
2022/07/26 14:15:52;;;;;;;;;;;;;;;37.61;26.31;99103.03;4994508;28;870;-71
2022/07/26 14:18:19;;;;;;;;;;;;;;;37.45;27.21;99091.06;4994559;28;834;-68
2022/07/26 14:20:48;;;;;;;;;;;;;;;37.08;27.01;99093.34;4994491;28;818;-67
2022/07/26 14:23:14;;;;;;;;;;;;;;;36.82;28.10;99087.13;4994388;28;869;-70
2022/07/26 14:28:44;;;;;;;;;;;;;;;36.73;28.22;99090.78;4994251;28;621;-71
2022/07/26 14:34:15;;;;;;;;;;;;;;;35.65;28.42;99100.34;4994939;28;990;-76
2022/07/26 14:37:18;;;;;;;;;;;;;;;35.11;29.82;99095.97;4960585;28;1206;-76
2022/07/26 14:39:45;;;;;;;;;;;;;;;34.86;30.46;99084.59;4993759;28;1236;-69
2022/07/26 14:42:11;;;;;;;;;;;;;;;34.65;30.22;99082.13;4993956;28;843;-70
2022/07/26 14:47:40;;;;;;;;;;;;;;;33.93;31.58;99078.88;4993972;28;629;-70
